Time,TemperatureF,DewpointF,PressureIn,WindDirection,WindDirectionDegrees,WindSpeedMPH,WindSpeedGustMPH,Humidity,HourlyPrecipIn,Conditions,Clouds,dailyrainin,SoftwareType,DateUTC
2013-05-28 00:02:00,77.0,71.0,29.79,South,179,11.0,11.0,83,0.00,,,0.00,,2013-05-28 05:02:00,
2013-05-28 00:12:00,77.0,71.0,29.79,South,179,11.0,11.0,83,0.00,,,0.00,,2013-05-28 05:12:00,
2013-05-28 00:22:00,77.0,72.0,29.79,SE,139,9.0,9.0,84,0.00,,,0.00,,2013-05-28 05:22:00,
2013-05-28 00:33:00,77.0,72.0,29.78,SSE,148,15.0,15.0,86,0.00,,,0.00,,2013-05-28 05:33:00,
2013-05-28 00:42:00,77.0,72.0,29.78,SSE,148,15.0,15.0,86,0.00,,,0.00,,2013-05-28 05:42:00,
2013-05-28 00:52:00,77.0,73.0,29.77,SSE,167,15.0,15.0,87,0.00,,,0.00,,2013-05-28 05:52:00,
2013-05-28 01:02:00,76.0,72.0,29.77,South,187,12.0,12.0,88,0.00,,,0.00,,2013-05-28 06:02:00,
2013-05-28 01:12:00,76.0,72.0,29.77,South,187,12.0,12.0,88,0.00,,,0.00,,2013-05-28 06:12:00,
2013-05-28 01:21:00,76.0,72.0,29.77,SSE,162,7.0,8.0,88,0.00,,,0.00,,2013-05-28 06:21:00,
2013-05-28 01:31:00,76.0,73.0,29.77,SE,141,11.0,11.0,89,0.00,,,0.00,,2013-05-28 06:31:00,
2013-05-28 01:41:00,76.0,73.0,29.77,SE,141,11.0,11.0,89,0.00,,,0.00,,2013-05-28 06:41:00,
2013-05-28 01:52:00,76.0,73.0,29.76,SE,142,12.0,12.0,89,0.00,,,0.00,,2013-05-28 06:52:00,
2013-05-28 02:01:00,76.0,73.0,29.77,SSE,155,12.0,15.0,90,0.00,,,0.00,,2013-05-28 07:01:00,
2013-05-28 02:11:00,76.0,73.0,29.77,SSE,155,12.0,15.0,90,0.00,,,0.00,,2013-05-28 07:11:00,
2013-05-28 02:21:00,76.0,73.0,29.76,SSE,160,8.0,9.0,90,0.00,,,0.00,,2013-05-28 07:21:00,
2013-05-28 02:32:00,76.0,73.0,29.76,SSE,153,11.0,17.0,90,0.00,,,0.00,,2013-05-28 07:32:00,
2013-05-28 02:42:00,76.0,73.0,29.76,SSE,153,11.0,17.0,90,0.00,,,0.00,,2013-05-28 07:42:00,
2013-05-28 02:52:00,76.0,73.0,29.76,SE,146,5.0,6.0,89,0.00,,,0.00,,2013-05-28 07:52:00,
2013-05-28 03:02:00,76.0,73.0,29.76,SSE,153,8.0,8.0,89,0.00,,,0.00,,2013-05-28 08:02:00,
2013-05-28 03:11:00,76.0,73.0,29.76,SSE,153,8.0,8.0,89,0.00,,,0.00,,2013-05-28 08:11:00,
2013-05-28 03:22:00,76.0,73.0,29.75,SSE,150,12.0,12.0,90,0.00,,,0.00,,2013-05-28 08:22:00,
2013-05-28 03:32:00,76.0,73.0,29.76,SSE,160,10.0,10.0,89,0.00,,,0.00,,2013-05-28 08:32:00,
2013-05-28 03:42:00,76.0,73.0,29.76,SSE,160,10.0,10.0,89,0.00,,,0.00,,2013-05-28 08:42:00,
2013-05-28 03:52:00,75.0,72.0,29.76,ESE,113,11.0,14.0,89,0.00,,,0.00,,2013-05-28 08:52:00,
2013-05-28 04:01:00,75.0,72.0,29.76,South,179,10.0,14.0,90,0.00,,,0.00,,2013-05-28 09:01:00,
2013-05-28 04:11:00,75.0,72.0,29.76,South,179,10.0,14.0,90,0.00,,,0.00,,2013-05-28 09:11:00,
2013-05-28 04:21:00,74.0,71.0,29.76,SSE,167,10.0,18.0,90,0.00,,,0.00,,2013-05-28 09:21:00,
2013-05-28 04:33:00,74.0,71.0,29.76,SE,132,15.0,15.0,91,0.00,,,0.00,,2013-05-28 09:33:00,
2013-05-28 04:42:00,74.0,71.0,29.76,SE,132,15.0,15.0,91,0.00,,,0.00,,2013-05-28 09:42:00,
2013-05-28 04:54:00,73.0,70.0,29.75,SSE,159,13.0,13.0,91,0.00,,,0.00,,2013-05-28 09:54:00,
2013-05-28 05:03:00,73.0,70.0,29.76,South,183,10.0,10.0,91,0.00,,,0.00,,2013-05-28 10:03:00,
2013-05-28 05:12:00,73.0,70.0,29.76,South,183,10.0,10.0,91,0.00,,,0.00,,2013-05-28 10:12:00,
2013-05-28 05:22:00,72.0,70.0,29.76,South,183,8.0,8.0,92,0.00,,,0.00,,2013-05-28 10:22:00,
2013-05-28 05:32:00,71.0,69.0,29.76,ESE,113,7.0,7.0,93,0.00,,,0.00,,2013-05-28 10:32:00,
2013-05-28 05:42:00,71.0,69.0,29.76,ESE,113,7.0,7.0,93,0.00,,,0.00,,2013-05-28 10:42:00,
2013-05-28 05:53:00,71.0,69.0,29.76,SSE,166,8.0,11.0,94,0.00,,,0.00,,2013-05-28 10:53:00,
2013-05-28 06:02:00,70.0,68.0,29.77,South,173,6.0,6.0,94,0.00,,,0.00,,2013-05-28 11:02:00,
2013-05-28 06:11:00,70.0,68.0,29.77,South,173,6.0,6.0,94,0.00,,,0.00,,2013-05-28 11:11:00,
2013-05-28 06:22:00,70.0,68.0,29.77,SSE,160,7.0,7.0,95,0.00,,,0.00,,2013-05-28 11:22:00,
2013-05-28 06:32:00,70.0,68.0,29.77,SSW,194,8.0,10.0,95,0.00,,,0.00,,2013-05-28 11:32:00,
2013-05-28 06:42:00,70.0,68.0,29.77,SSW,194,8.0,10.0,95,0.00,,,0.00,,2013-05-28 11:42:00,
2013-05-28 06:52:00,70.0,68.0,29.78,SW,225,6.0,6.0,94,0.00,,,0.00,,2013-05-28 11:52:00,
2013-05-28 07:01:00,70.0,68.0,29.81,SSE,155,5.0,5.0,94,0.00,,,0.00,,2013-05-28 12:01:00,
2013-05-28 07:11:00,70.0,68.0,29.81,SSE,155,5.0,5.0,94,0.00,,,0.00,,2013-05-28 12:11:00,
2013-05-28 07:21:00,70.0,68.0,29.81,SSE,159,7.0,7.0,94,0.00,,,0.00,,2013-05-28 12:21:00,
2013-05-28 07:31:00,70.0,68.0,29.80,SE,146,7.0,7.0,94,0.00,,,0.00,,2013-05-28 12:31:00,
2013-05-28 07:42:00,70.0,68.0,29.80,SE,146,7.0,7.0,94,0.00,,,0.00,,2013-05-28 12:42:00,
2013-05-28 07:52:00,71.0,69.0,29.78,South,170,8.0,9.0,94,0.00,,,0.00,,2013-05-28 12:52:00,
2013-05-28 08:01:00,71.0,69.0,29.76,SSE,159,12.0,12.0,93,0.00,,,0.00,,2013-05-28 13:01:00,
2013-05-28 08:11:00,71.0,69.0,29.76,SSE,159,12.0,12.0,93,0.00,,,0.00,,2013-05-28 13:11:00,
2013-05-28 08:21:00,71.0,69.0,29.75,SSE,167,14.0,18.0,93,0.00,,,0.00,,2013-05-28 13:21:00,
2013-05-28 08:32:00,71.0,69.0,29.74,SE,146,15.0,15.0,93,0.00,,,0.00,,2013-05-28 13:32:00,
2013-05-28 08:42:00,71.0,69.0,29.74,SE,146,15.0,15.0,93,0.00,,,0.00,,2013-05-28 13:42:00,
2013-05-28 08:52:00,71.0,69.0,29.72,SSE,150,17.0,20.0,92,0.00,,,0.00,,2013-05-28 13:52:00,
2013-05-28 09:01:00,71.0,69.0,29.75,South,190,12.0,16.0,92,0.00,,,0.00,,2013-05-28 14:01:00,
2013-05-28 09:11:00,71.0,69.0,29.75,South,190,12.0,16.0,92,0.00,,,0.00,,2013-05-28 14:11:00,
2013-05-28 09:21:00,71.0,68.0,29.80,SSW,197,8.0,15.0,91,0.00,,,0.00,,2013-05-28 14:21:00,
2013-05-28 09:32:00,71.0,68.0,29.85,WSW,256,1.0,0.0,91,0.00,,,0.00,,2013-05-28 14:32:00,
2013-05-28 09:42:00,71.0,68.0,29.85,WSW,256,1.0,0.0,91,0.00,,,0.00,,2013-05-28 14:42:00,
2013-05-28 09:52:00,71.0,69.0,29.83,South,170,4.0,6.0,93,0.00,,,0.00,,2013-05-28 14:52:00,
2013-05-28 10:01:00,71.0,69.0,29.83,South,170,4.0,6.0,93,0.00,,,0.00,,2013-05-28 15:01:00,
2013-05-28 10:11:00,71.0,69.0,29.83,South,170,4.0,6.0,93,0.00,,,0.00,,2013-05-28 15:11:00,
2013-05-28 10:21:00,71.0,69.0,29.82,South,176,10.0,16.0,94,0.00,,,0.00,,2013-05-28 15:21:00,
2013-05-28 10:32:00,71.0,69.0,29.80,SSE,155,13.0,17.0,93,0.00,,,0.00,,2013-05-28 15:32:00,
2013-05-28 10:43:00,71.0,69.0,29.80,SSE,155,13.0,17.0,93,0.00,,,0.00,,2013-05-28 15:43:00,
2013-05-28 10:52:00,71.0,69.0,29.78,ESE,122,14.0,14.0,92,0.00,,,0.00,,2013-05-28 15:52:00,
2013-05-28 11:03:00,74.0,70.0,29.78,SSE,163,14.0,14.0,88,0.00,,,0.00,,2013-05-28 16:03:00,
2013-05-28 11:12:00,74.0,70.0,29.78,SSE,163,14.0,14.0,88,0.00,,,0.00,,2013-05-28 16:12:00,
2013-05-28 11:22:00,76.0,70.0,29.81,SSE,149,9.0,11.0,83,0.00,,,0.00,,2013-05-28 16:22:00,
2013-05-28 11:33:00,75.0,70.0,29.83,South,188,7.0,9.0,85,0.00,,,0.00,,2013-05-28 16:33:00,
2013-05-28 11:42:00,75.0,70.0,29.83,South,188,7.0,9.0,85,0.00,,,0.00,,2013-05-28 16:42:00,
2013-05-28 11:52:00,74.0,70.0,29.83,SSE,160,4.0,7.0,86,0.00,,,0.00,,2013-05-28 16:52:00,
2013-05-28 12:02:00,76.0,70.0,29.82,SSE,152,10.0,10.0,83,0.00,,,0.00,,2013-05-28 17:02:00,
2013-05-28 12:12:00,76.0,70.0,29.82,SSE,152,10.0,10.0,83,0.00,,,0.00,,2013-05-28 17:12:00,
2013-05-28 12:22:00,76.0,70.0,29.82,SSE,152,10.0,10.0,83,0.00,,,0.00,,2013-05-28 17:22:00,
2013-05-28 12:32:00,80.0,71.0,29.80,South,170,11.0,11.0,75,0.00,,,0.00,,2013-05-28 17:32:00,
2013-05-28 12:42:00,81.0,71.0,29.80,ESE,110,10.0,12.0,72,0.00,,,0.00,,2013-05-28 17:42:00,
2013-05-28 12:52:00,81.0,71.0,29.80,ESE,110,10.0,12.0,72,0.00,,,0.00,,2013-05-28 17:52:00,
2013-05-28 13:01:00,81.0,72.0,29.80,SSE,158,7.0,9.0,73,0.00,,,0.00,,2013-05-28 18:01:00,
2013-05-28 13:11:00,81.0,72.0,29.80,SSE,158,7.0,9.0,73,0.00,,,0.00,,2013-05-28 18:11:00,
2013-05-28 13:21:00,83.0,72.0,29.80,SSE,155,8.0,8.0,69,0.00,,,0.00,,2013-05-28 18:21:00,
2013-05-28 13:32:00,82.0,71.0,29.81,South,181,7.0,7.0,69,0.00,,,0.00,,2013-05-28 18:32:00,
2013-05-28 13:42:00,79.0,70.0,29.82,South,170,7.0,8.0,75,0.00,,,0.00,,2013-05-28 18:42:00,
2013-05-28 13:52:00,79.0,70.0,29.82,South,170,7.0,8.0,75,0.00,,,0.00,,2013-05-28 18:52:00,
2013-05-28 14:01:00,78.0,71.0,29.83,SSW,195,0.0,0.0,78,0.00,,,0.00,,2013-05-28 19:01:00,
2013-05-28 14:11:00,78.0,71.0,29.83,SSW,195,0.0,0.0,78,0.00,,,0.00,,2013-05-28 19:11:00,
2013-05-28 14:21:00,78.0,71.0,29.82,SSW,195,0.0,0.0,79,0.00,,,0.00,,2013-05-28 19:21:00,
2013-05-28 14:32:00,78.0,71.0,29.80,SE,136,4.0,4.0,78,0.00,,,0.00,,2013-05-28 19:32:00,
2013-05-28 14:41:00,78.0,71.0,29.80,SE,136,4.0,4.0,78,0.00,,,0.00,,2013-05-28 19:41:00,
2013-05-28 14:52:00,81.0,71.0,29.78,East,93,9.0,11.0,71,0.00,,,0.00,,2013-05-28 19:52:00,
2013-05-28 15:01:00,83.0,71.0,29.78,SSE,160,8.0,8.0,68,0.00,,,0.00,,2013-05-28 20:01:00,
2013-05-28 15:11:00,83.0,71.0,29.78,SSE,160,8.0,8.0,68,0.00,,,0.00,,2013-05-28 20:11:00,
2013-05-28 15:22:00,85.0,71.0,29.77,SSE,152,12.0,13.0,63,0.00,,,0.00,,2013-05-28 20:22:00,
2013-05-28 15:32:00,85.0,70.0,29.76,ESE,121,11.0,11.0,62,0.00,,,0.00,,2013-05-28 20:32:00,
2013-05-28 15:42:00,85.0,70.0,29.76,ESE,121,11.0,11.0,62,0.00,,,0.00,,2013-05-28 20:42:00,
2013-05-28 15:52:00,85.0,71.0,29.75,SE,146,10.0,12.0,63,0.00,,,0.00,,2013-05-28 20:52:00,
2013-05-28 16:01:00,88.0,71.0,29.73,SE,135,14.0,16.0,57,0.00,,,0.00,,2013-05-28 21:01:00,
2013-05-28 16:11:00,88.0,70.0,29.73,SE,125,15.0,15.0,56,0.00,,,0.00,,2013-05-28 21:11:00,
2013-05-28 16:21:00,88.0,70.0,29.73,SE,125,15.0,15.0,56,0.00,,,0.00,,2013-05-28 21:21:00,
2013-05-28 16:33:00,89.0,70.0,29.71,SSE,158,12.0,17.0,54,0.00,,,0.00,,2013-05-28 21:33:00,
2013-05-28 16:43:00,92.0,70.0,29.70,SE,141,16.0,16.0,49,0.00,,,0.00,,2013-05-28 21:43:00,
2013-05-28 16:53:00,92.0,70.0,29.70,SE,141,16.0,16.0,49,0.00,,,0.00,,2013-05-28 21:53:00,
2013-05-28 17:02:00,93.0,70.0,29.70,SSE,150,10.0,12.0,48,0.00,,,0.00,,2013-05-28 22:02:00,
2013-05-28 17:12:00,90.0,69.0,29.69,East,98,12.0,12.0,51,0.00,,,0.00,,2013-05-28 22:12:00,
2013-05-28 17:22:00,90.0,69.0,29.69,East,98,12.0,12.0,51,0.00,,,0.00,,2013-05-28 22:22:00,
2013-05-28 17:32:00,86.0,69.0,29.70,SE,131,12.0,12.0,57,0.00,,,0.00,,2013-05-28 22:32:00,
2013-05-28 17:42:00,84.0,69.0,29.72,SSE,165,9.0,9.0,60,0.00,,,0.00,,2013-05-28 22:42:00,
2013-05-28 17:52:00,84.0,69.0,29.72,SSE,165,9.0,9.0,60,0.00,,,0.00,,2013-05-28 22:52:00,
2013-05-28 18:02:00,83.0,69.0,29.74,SW,225,6.0,6.0,62,0.00,,,0.00,,2013-05-28 23:02:00,
2013-05-28 18:11:00,82.0,69.0,29.74,SSE,162,5.0,6.0,64,0.00,,,0.00,,2013-05-28 23:11:00,
2013-05-28 18:21:00,82.0,69.0,29.74,SSE,162,5.0,6.0,64,0.00,,,0.00,,2013-05-28 23:21:00,
2013-05-28 18:32:00,81.0,69.0,29.74,SSE,150,2.0,8.0,67,0.00,,,0.00,,2013-05-28 23:32:00,
2013-05-28 18:42:00,81.0,69.0,29.74,SSE,150,2.0,8.0,67,0.00,,,0.00,,2013-05-28 23:42:00,
2013-05-28 18:52:00,80.0,69.0,29.72,ESE,111,6.0,6.0,69,0.00,,,0.00,,2013-05-28 23:52:00,
2013-05-28 19:02:00,80.0,69.0,29.68,East,91,9.0,9.0,69,0.00,,,0.00,,2013-05-29 00:02:00,
2013-05-28 19:11:00,80.0,69.0,29.68,East,91,9.0,9.0,69,0.00,,,0.00,,2013-05-29 00:11:00,
2013-05-28 19:21:00,80.0,69.0,29.67,East,98,10.0,10.0,70,0.00,,,0.00,,2013-05-29 00:21:00,
2013-05-28 19:32:00,80.0,69.0,29.67,SE,124,13.0,18.0,69,0.00,,,0.00,,2013-05-29 00:32:00,
2013-05-28 19:41:00,80.0,69.0,29.67,SE,124,13.0,18.0,69,0.00,,,0.00,,2013-05-29 00:41:00,
2013-05-28 19:52:00,80.0,68.0,29.70,SSE,148,12.0,14.0,68,0.00,,,0.00,,2013-05-29 00:52:00,
2013-05-28 20:01:00,80.0,69.0,29.65,SE,125,14.0,16.0,70,0.00,,,0.00,,2013-05-29 01:01:00,
2013-05-28 20:11:00,80.0,68.0,29.61,ESE,118,17.0,18.0,68,0.00,,,0.00,,2013-05-29 01:11:00,
2013-05-28 20:22:00,80.0,68.0,29.61,ESE,118,17.0,18.0,68,0.00,,,0.00,,2013-05-29 01:22:00,
2013-05-28 20:32:00,80.0,68.0,29.64,ESE,121,16.0,16.0,67,0.00,,,0.00,,2013-05-29 01:32:00,
2013-05-28 20:42:00,80.0,68.0,29.64,ESE,121,16.0,16.0,67,0.00,,,0.00,,2013-05-29 01:42:00,
2013-05-28 20:52:00,80.0,68.0,29.68,ESE,110,12.0,17.0,68,0.00,,,0.00,,2013-05-29 01:52:00,
2013-05-28 21:02:00,79.0,68.0,29.62,East,82,17.0,18.0,70,0.00,,,0.00,,2013-05-29 02:02:00,
2013-05-28 21:12:00,79.0,68.0,29.60,SE,129,18.0,18.0,70,0.00,,,0.00,,2013-05-29 02:12:00,
2013-05-28 21:21:00,79.0,68.0,29.60,SE,129,18.0,18.0,70,0.00,,,0.00,,2013-05-29 02:21:00,
2013-05-28 21:32:00,78.0,68.0,29.65,SE,134,14.0,15.0,72,0.00,,,0.00,,2013-05-29 02:32:00,
2013-05-28 21:42:00,78.0,69.0,29.66,SSE,152,17.0,17.0,73,0.00,,,0.00,,2013-05-29 02:42:00,
2013-05-28 21:52:00,78.0,69.0,29.66,SSE,152,17.0,17.0,73,0.00,,,0.00,,2013-05-29 02:52:00,
2013-05-28 22:02:00,79.0,70.0,29.66,SE,125,15.0,15.0,73,0.00,,,0.00,,2013-05-29 03:02:00,
2013-05-28 22:12:00,79.0,70.0,29.66,SE,125,15.0,15.0,73,0.00,,,0.00,,2013-05-29 03:12:00,
2013-05-28 22:21:00,79.0,70.0,29.66,ESE,120,18.0,19.0,73,0.00,,,0.00,,2013-05-29 03:21:00,
2013-05-28 22:33:00,78.0,69.0,29.68,SE,124,16.0,16.0,74,0.00,,,0.00,,2013-05-29 03:33:00,
2013-05-28 22:43:00,78.0,69.0,29.68,SE,124,16.0,16.0,74,0.00,,,0.00,,2013-05-29 03:43:00,
2013-05-28 22:53:00,73.0,72.0,29.67,SE,146,16.0,16.0,97,0.02,,,0.00,,2013-05-29 03:53:00,
2013-05-28 23:02:00,71.0,71.0,29.69,SE,129,15.0,21.0,100,0.02,,,0.00,,2013-05-29 04:02:00,
2013-05-28 23:12:00,71.0,71.0,29.71,SSE,152,15.0,15.0,100,0.02,,,0.00,,2013-05-29 04:12:00,
2013-05-28 23:23:00,71.0,71.0,29.71,SSE,152,15.0,15.0,100,0.02,,,0.00,,2013-05-29 04:23:00,
2013-05-28 23:33:00,71.0,71.0,29.70,SSE,166,14.0,14.0,100,0.02,,,0.00,,2013-05-29 04:33:00,
2013-05-28 23:42:00,71.0,71.0,29.70,SSE,166,14.0,14.0,100,0.02,,,0.00,,2013-05-29 04:42:00,
2013-05-28 23:52:00,71.0,71.0,29.65,ESE,122,20.0,25.0,100,0.02,,,0.00,,2013-05-29 04:52:00,